createdAt,value
2022-08-17T00:02:26.768Z,13.93
2022-08-17T00:04:54.666Z,13.92
2022-08-17T00:07:21.380Z,13.89
2022-08-17T00:09:48.187Z,13.87
2022-08-17T00:12:40.945Z,13.88
2022-08-17T00:15:02.207Z,13.88
2022-08-17T00:17:29.137Z,13.87
2022-08-17T00:19:55.839Z,13.85
2022-08-17T00:22:34.842Z,13.84
2022-08-17T00:25:08.020Z,13.85
2022-08-17T00:27:35.313Z,13.89
2022-08-17T00:30:02.127Z,13.91
2022-08-17T00:33:14.905Z,13.93
2022-08-17T00:35:18.436Z,13.92
2022-08-17T00:37:45.411Z,13.92
2022-08-17T00:40:15.188Z,13.88
2022-08-17T00:42:44.414Z,13.86
2022-08-17T00:45:14.237Z,13.82
2022-08-17T00:47:42.004Z,13.82
2022-08-17T00:50:11.453Z,13.79
2022-08-17T00:52:44.262Z,13.75
2022-08-17T00:55:11.646Z,13.78
2022-08-17T00:57:43.696Z,13.78
2022-08-17T01:00:18.881Z,13.77
2022-08-17T01:02:47.408Z,13.78
2022-08-17T01:05:19.693Z,13.77
2022-08-17T01:07:50.802Z,13.75
2022-08-17T01:10:59.083Z,13.71
2022-08-17T01:13:10.793Z,13.67
2022-08-17T01:15:41.473Z,13.64
2022-08-17T01:18:14.805Z,13.62
2022-08-17T01:20:48.150Z,13.64
2022-08-17T01:23:16.408Z,13.66
2022-08-17T01:25:51.526Z,13.68
2022-08-17T01:28:52.555Z,13.69
2022-08-17T01:31:08.153Z,13.71
2022-08-17T01:33:35.469Z,13.72
2022-08-17T01:36:02.721Z,13.73
2022-08-17T01:38:31.799Z,13.73
2022-08-17T01:41:06.667Z,13.74
2022-08-17T01:43:41.666Z,13.77
2022-08-17T01:46:08.348Z,13.75
2022-08-17T01:48:38.845Z,13.79
2022-08-17T01:51:07.648Z,13.82
2022-08-17T01:53:42.672Z,13.77
2022-08-17T01:56:12.780Z,13.69
2022-08-17T01:58:40.714Z,13.68
2022-08-17T02:01:08.351Z,13.73
2022-08-17T02:03:36.541Z,13.73
2022-08-17T02:06:06.076Z,13.74
2022-08-17T02:08:57.002Z,13.74
2022-08-17T02:11:31.256Z,13.77
2022-08-17T02:14:03.123Z,13.79
2022-08-17T02:16:37.601Z,13.78
2022-08-17T02:19:10.758Z,13.78
2022-08-17T02:21:39.532Z,13.79
2022-08-17T02:24:10.973Z,13.76
2022-08-17T02:26:37.712Z,13.74
2022-08-17T02:29:04.625Z,13.76
2022-08-17T02:31:31.760Z,13.78
2022-08-17T02:34:03.668Z,13.81
2022-08-17T02:36:36.144Z,13.80
2022-08-17T02:39:05.756Z,13.75
2022-08-17T02:41:32.432Z,13.68
2022-08-17T02:43:59.223Z,13.68
2022-08-17T02:46:26.213Z,13.72
2022-08-17T02:48:52.866Z,13.74
2022-08-17T02:51:20.109Z,13.74
2022-08-17T02:53:46.897Z,13.76
2022-08-17T02:56:13.840Z,13.77
2022-08-17T02:58:40.589Z,13.75
2022-08-17T03:01:09.551Z,13.75
2022-08-17T03:03:37.651Z,13.75
2022-08-17T03:06:05.099Z,13.76
2022-08-17T03:08:31.849Z,13.73
2022-08-17T03:10:58.596Z,13.72
2022-08-17T03:13:25.375Z,13.71
2022-08-17T03:15:52.033Z,13.71
2022-08-17T03:18:24.784Z,13.69
2022-08-17T03:20:58.311Z,13.70
2022-08-17T03:23:27.306Z,13.71
2022-08-17T03:25:55.541Z,13.70
2022-08-17T03:28:23.485Z,13.67
2022-08-17T03:30:51.381Z,13.71
2022-08-17T03:33:19.057Z,13.73
2022-08-17T03:35:45.926Z,13.73
2022-08-17T03:38:15.234Z,13.76
2022-08-17T03:40:57.631Z,13.79
2022-08-17T03:43:31.958Z,13.83
2022-08-17T03:46:34.459Z,13.82
2022-08-17T03:49:25.477Z,13.79
2022-08-17T03:52:11.547Z,13.84
2022-08-17T03:54:57.573Z,13.88
2022-08-17T03:57:24.767Z,13.88
2022-08-17T03:59:52.248Z,13.87
2022-08-17T04:02:21.426Z,13.90
2022-08-17T04:04:52.475Z,13.93
2022-08-17T04:07:20.895Z,13.93
2022-08-17T04:09:47.845Z,13.95
2022-08-17T04:12:16.518Z,13.96
2022-08-17T04:14:53.540Z,13.98
2022-08-17T04:17:28.279Z,13.98
2022-08-17T04:19:55.544Z,13.97
2022-08-17T04:22:32.479Z,13.96
2022-08-17T04:25:20.051Z,13.99
2022-08-17T04:27:49.020Z,13.99
2022-08-17T04:30:16.089Z,13.97
2022-08-17T04:33:10.588Z,13.96
2022-08-17T04:35:50.148Z,13.98
2022-08-17T04:38:20.087Z,14.00
2022-08-17T04:41:05.454Z,13.97
2022-08-17T04:43:33.577Z,13.85
2022-08-17T04:46:03.560Z,13.79
2022-08-17T04:48:42.731Z,13.71
2022-08-17T04:51:17.513Z,13.72
2022-08-17T04:53:53.963Z,13.66
2022-08-17T04:56:22.695Z,13.58
2022-08-17T04:58:51.686Z,13.60
2022-08-17T05:01:23.709Z,13.57
2022-08-17T05:03:56.803Z,13.59
2022-08-17T05:06:24.003Z,13.56
2022-08-17T05:08:51.242Z,13.55
2022-08-17T05:11:18.807Z,13.50
2022-08-17T05:13:45.722Z,13.51
2022-08-17T05:16:12.454Z,13.54
2022-08-17T05:18:39.205Z,13.55
2022-08-17T05:21:06.845Z,13.52
2022-08-17T05:23:42.515Z,13.51
2022-08-17T05:26:26.225Z,13.48
2022-08-17T05:28:55.429Z,13.44
2022-08-17T05:31:24.586Z,13.47
2022-08-17T05:33:53.338Z,13.49
2022-08-17T05:36:41.808Z,13.46
2022-08-17T05:39:06.866Z,13.43
2022-08-17T05:41:33.544Z,13.46
2022-08-17T05:44:00.225Z,13.48
2022-08-17T05:46:35.283Z,13.47
2022-08-17T05:49:08.133Z,13.45
2022-08-17T05:52:00.284Z,13.47
2022-08-17T05:54:41.825Z,13.47
2022-08-17T05:57:08.513Z,13.47
2022-08-17T05:59:53.043Z,13.52
2022-08-17T06:02:22.440Z,13.52
2022-08-17T06:04:57.501Z,13.48
2022-08-17T06:07:48.567Z,13.48
2022-08-17T06:10:34.041Z,13.51
2022-08-17T06:13:03.665Z,13.56
2022-08-17T06:15:44.059Z,13.59
2022-08-17T06:18:15.930Z,13.62
2022-08-17T06:21:01.850Z,13.63
2022-08-17T06:23:47.374Z,13.59
2022-08-17T06:26:21.569Z,13.58
2022-08-17T06:29:18.771Z,13.57
2022-08-17T06:31:46.236Z,13.59
2022-08-17T06:34:13.257Z,13.59
2022-08-17T06:36:54.334Z,13.63
2022-08-17T06:39:27.953Z,13.63
2022-08-17T06:43:02.173Z,13.63
2022-08-17T06:45:06.858Z,13.64
2022-08-17T06:47:36.565Z,13.66
2022-08-17T06:50:15.750Z,13.67
2022-08-17T06:52:50.462Z,13.73
2022-08-17T06:55:37.870Z,13.75
2022-08-17T06:58:16.125Z,13.79
2022-08-17T07:00:47.243Z,13.79
2022-08-17T07:03:28.952Z,13.80
2022-08-17T07:06:03.604Z,13.84
2022-08-17T07:08:52.075Z,13.85
2022-08-17T07:11:46.555Z,13.90
2022-08-17T07:14:36.568Z,13.93
2022-08-17T07:17:08.799Z,13.94
2022-08-17T07:19:40.709Z,13.96
2022-08-17T07:22:30.337Z,14.00
2022-08-17T07:25:20.806Z,14.00
2022-08-17T07:27:54.450Z,14.03
2022-08-17T07:30:27.100Z,14.06
2022-08-17T07:32:59.299Z,14.11
2022-08-17T07:35:31.404Z,14.13
2022-08-17T07:38:25.028Z,14.13
2022-08-17T07:41:02.617Z,14.15
2022-08-17T07:43:46.957Z,14.15
2022-08-17T07:46:42.291Z,14.17
2022-08-17T07:49:08.994Z,14.13
2022-08-17T07:51:36.584Z,14.13
2022-08-17T07:54:29.449Z,14.08
2022-08-17T07:56:57.472Z,14.06
2022-08-17T07:59:31.125Z,14.07
2022-08-17T08:02:05.319Z,14.14
2022-08-17T08:04:59.668Z,14.19
2022-08-17T08:07:32.085Z,14.20
2022-08-17T08:10:12.087Z,14.25
2022-08-17T08:12:45.723Z,14.33
2022-08-17T08:15:26.178Z,14.33
2022-08-17T08:17:58.777Z,14.31
2022-08-17T08:20:42.480Z,14.39
2022-08-17T08:23:25.673Z,14.47
2022-08-17T08:26:05.438Z,14.50
2022-08-17T08:28:43.497Z,14.54
2022-08-17T08:31:27.340Z,14.61
2022-08-17T08:34:01.357Z,14.67
2022-08-17T08:37:13.075Z,14.71
2022-08-17T08:39:52.250Z,14.75
2022-08-17T08:42:33.199Z,14.81
2022-08-17T08:45:05.396Z,14.84
2022-08-17T08:47:45.116Z,14.88
2022-08-17T08:50:37.120Z,14.93
2022-08-17T08:53:24.120Z,15.03
2022-08-17T08:56:12.649Z,15.08
2022-08-17T08:59:00.541Z,15.14
2022-08-17T09:01:51.960Z,15.14
2022-08-17T09:05:02.790Z,15.14
2022-08-17T09:07:47.832Z,15.17
2022-08-17T09:10:39.173Z,15.21
2022-08-17T09:13:43.521Z,15.24
2022-08-17T09:16:16.581Z,15.28
2022-08-17T09:19:02.770Z,15.33
2022-08-17T09:21:38.625Z,15.36
2022-08-17T09:24:25.138Z,15.43
2022-08-17T09:27:01.063Z,15.50
2022-08-17T09:29:35.286Z,15.60
2022-08-17T09:32:09.768Z,15.67
2022-08-17T09:34:47.130Z,15.77
2022-08-17T09:37:21.753Z,15.87
2022-08-17T09:40:37.818Z,15.92
2022-08-17T09:43:12.709Z,15.98
2022-08-17T09:46:01.890Z,16.03
2022-08-17T09:48:40.716Z,16.14
2022-08-17T09:51:15.598Z,16.21
2022-08-17T09:53:44.696Z,16.25
2022-08-17T09:56:26.921Z,16.33
2022-08-17T09:59:16.966Z,16.29
2022-08-17T10:02:34.081Z,16.31
2022-08-17T10:05:12.100Z,16.39
2022-08-17T10:07:44.778Z,16.50
2022-08-17T10:10:36.050Z,16.54
2022-08-17T10:13:20.067Z,16.56
2022-08-17T10:16:08.162Z,16.60
2022-08-17T10:18:35.489Z,16.66
2022-08-17T10:21:28.853Z,16.72
2022-08-17T10:25:01.959Z,16.77
2022-08-17T10:27:49.171Z,16.85
2022-08-17T10:30:18.857Z,17.03
2022-08-17T10:32:48.210Z,17.26
2022-08-17T10:35:47.362Z,17.36
2022-08-17T10:38:46.249Z,17.47
2022-08-17T10:41:35.798Z,17.49
2022-08-17T10:44:38.016Z,17.40
2022-08-17T10:47:17.733Z,17.29
2022-08-17T10:49:54.214Z,17.19
2022-08-17T10:52:24.915Z,17.10
2022-08-17T10:54:56.688Z,17.11
2022-08-17T10:57:31.881Z,17.15
2022-08-17T11:00:33.953Z,17.21
2022-08-17T11:03:01.178Z,17.20
2022-08-17T11:06:06.473Z,17.25
2022-08-17T11:09:04.078Z,17.23
2022-08-17T11:11:43.480Z,17.20
2022-08-17T11:14:11.281Z,17.28
2022-08-17T11:16:47.992Z,17.25
2022-08-17T11:19:36.996Z,17.22
2022-08-17T11:22:06.683Z,17.18
2022-08-17T11:24:45.635Z,17.13
2022-08-17T11:27:34.441Z,17.13
2022-08-17T11:30:06.152Z,17.08
2022-08-17T11:32:37.388Z,17.12
2022-08-17T11:35:22.182Z,17.19
2022-08-17T11:38:02.956Z,17.26
2022-08-17T11:41:07.169Z,17.28
2022-08-17T11:44:15.478Z,17.34
2022-08-17T11:47:00.893Z,17.39
2022-08-17T11:49:58.729Z,17.48
2022-08-17T11:52:47.524Z,17.67
2022-08-17T11:55:36.334Z,17.78
2022-08-17T11:58:29.661Z,17.85
2022-08-17T12:01:13.454Z,17.97
2022-08-17T12:03:55.552Z,18.03
2022-08-17T12:06:41.652Z,18.09
2022-08-17T12:09:21.134Z,18.13
2022-08-17T12:12:12.554Z,18.21
2022-08-17T12:15:08.878Z,18.25
2022-08-17T12:17:39.567Z,18.36
2022-08-17T12:20:31.638Z,18.35
2022-08-17T12:23:09.928Z,18.34
2022-08-17T12:25:45.943Z,18.38
2022-08-17T12:28:28.033Z,18.43
2022-08-17T12:31:03.917Z,18.51
2022-08-17T12:33:30.949Z,18.53
2022-08-17T12:36:03.172Z,18.63
2022-08-17T12:38:36.257Z,18.70
2022-08-17T12:41:24.579Z,18.77
2022-08-17T12:44:09.607Z,18.83
2022-08-17T12:47:00.959Z,18.94
2022-08-17T12:49:35.704Z,18.97
2022-08-17T12:52:05.834Z,19.06
2022-08-17T12:54:47.754Z,19.17
2022-08-17T12:57:20.034Z,19.30
2022-08-17T12:59:49.157Z,19.46
2022-08-17T13:02:28.442Z,19.56
2022-08-17T13:04:58.679Z,19.61
2022-08-17T13:07:27.856Z,19.72
2022-08-17T13:09:54.787Z,19.86
2022-08-17T13:12:30.937Z,20.00
2022-08-17T13:14:58.281Z,20.14
2022-08-17T13:17:32.453Z,20.17
2022-08-17T13:19:59.501Z,20.07
2022-08-17T13:22:28.587Z,19.97
2022-08-17T13:24:58.860Z,19.77
2022-08-17T13:27:27.753Z,19.73
2022-08-17T13:29:59.638Z,19.93
2022-08-17T13:32:41.291Z,20.28
2022-08-17T13:35:39.298Z,20.38
2022-08-17T13:38:09.034Z,20.24
2022-08-17T13:40:44.811Z,20.44
2022-08-17T13:43:12.115Z,20.66
2022-08-17T13:46:08.939Z,20.77
2022-08-17T13:48:35.898Z,20.76
2022-08-17T13:51:11.729Z,20.72
2022-08-17T13:53:40.431Z,20.67
2022-08-17T13:56:33.436Z,20.69
2022-08-17T13:59:53.520Z,20.74
2022-08-17T14:02:16.377Z,20.87
2022-08-17T14:04:44.439Z,20.98
2022-08-17T14:07:15.423Z,21.03
2022-08-17T14:10:06.889Z,21.08
2022-08-17T14:12:35.183Z,21.03
2022-08-17T14:15:02.636Z,20.92
2022-08-17T14:17:36.342Z,20.81
2022-08-17T14:20:09.526Z,20.83
2022-08-17T14:22:39.692Z,20.75
2022-08-17T14:25:08.608Z,20.77
2022-08-17T14:27:52.419Z,20.76
2022-08-17T14:30:25.436Z,20.68
2022-08-17T14:32:54.602Z,20.70
2022-08-17T14:35:23.312Z,20.70
2022-08-17T14:37:51.610Z,20.68
2022-08-17T14:40:21.818Z,20.68
2022-08-17T14:42:49.981Z,20.65
2022-08-17T14:45:31.812Z,20.52
2022-08-17T14:48:07.848Z,20.48
2022-08-17T14:50:36.603Z,20.44
2022-08-17T14:53:06.126Z,20.42
2022-08-17T14:55:33.305Z,20.33
2022-08-17T14:58:00.154Z,20.18
2022-08-17T15:00:28.695Z,20.09
2022-08-17T15:03:00.087Z,20.11
2022-08-17T15:05:33.736Z,20.07
2022-08-17T15:08:01.889Z,20.02
2022-08-17T15:10:29.940Z,20.01
2022-08-17T15:12:57.466Z,20.00
2022-08-17T15:15:24.844Z,19.93
2022-08-17T15:17:51.859Z,19.93
2022-08-17T15:20:24.829Z,19.95
2022-08-17T15:22:55.752Z,19.95
2022-08-17T15:25:24.467Z,19.85
2022-08-17T15:27:52.121Z,19.87
2022-08-17T15:30:19.997Z,19.98
2022-08-17T15:32:51.455Z,20.11
2022-08-17T15:35:27.908Z,20.28
2022-08-17T15:38:10.589Z,20.26
2022-08-17T15:40:42.419Z,20.44
2022-08-17T15:43:12.438Z,20.75
2022-08-17T15:45:40.131Z,21.08
2022-08-17T15:48:07.147Z,21.38
2022-08-17T15:50:33.918Z,21.41
2022-08-17T15:53:02.004Z,21.28
2022-08-17T15:55:33.671Z,21.35
2022-08-17T15:58:01.215Z,21.47
2022-08-17T16:00:29.520Z,21.63
2022-08-17T16:03:14.151Z,21.67
2022-08-17T16:05:46.921Z,21.77
2022-08-17T16:08:20.152Z,21.84
2022-08-17T16:10:48.418Z,21.95
2022-08-17T16:13:17.404Z,21.92
2022-08-17T16:15:45.039Z,21.81
2022-08-17T16:18:18.025Z,21.72
2022-08-17T16:20:44.789Z,21.62
2022-08-17T16:23:18.531Z,21.49
2022-08-17T16:25:53.202Z,21.31
2022-08-17T16:28:30.893Z,21.14
2022-08-17T16:31:03.084Z,20.90
2022-08-17T16:33:30.236Z,20.74
2022-08-17T16:35:57.075Z,20.61
2022-08-17T16:38:23.791Z,20.46
2022-08-17T16:40:50.546Z,20.30
2022-08-17T16:43:17.419Z,20.20
2022-08-17T16:45:47.546Z,20.22
2022-08-17T16:48:18.526Z,20.18
2022-08-17T16:51:04.505Z,20.08
2022-08-17T16:53:31.875Z,20.03
2022-08-17T16:55:58.647Z,20.09
2022-08-17T16:58:25.401Z,20.15
2022-08-17T17:00:52.209Z,20.13
2022-08-17T17:03:23.888Z,20.15
2022-08-17T17:05:57.727Z,20.11
2022-08-17T17:08:48.514Z,20.01
2022-08-17T17:11:23.234Z,19.83
2022-08-17T17:14:08.534Z,19.77
2022-08-17T17:16:41.149Z,19.71
2022-08-17T17:19:34.708Z,19.73
2022-08-17T17:22:18.362Z,19.74
2022-08-17T17:25:09.453Z,19.62
2022-08-17T17:27:49.796Z,19.52
2022-08-17T17:30:24.790Z,19.49
2022-08-17T17:33:12.367Z,19.48
2022-08-17T17:35:50.617Z,19.39
2022-08-17T17:38:23.394Z,19.39
2022-08-17T17:41:03.180Z,19.33
2022-08-17T17:43:39.947Z,19.30
2022-08-17T17:46:39.383Z,19.31
2022-08-17T17:49:06.633Z,19.28
2022-08-17T17:52:13.174Z,19.24
2022-08-17T17:55:02.575Z,19.24
2022-08-17T17:57:58.848Z,19.13
2022-08-17T18:00:41.021Z,18.97
2022-08-17T18:03:34.186Z,18.90
2022-08-17T18:06:03.498Z,18.82
2022-08-17T18:08:57.974Z,18.77
2022-08-17T18:11:51.525Z,18.71
2022-08-17T18:14:43.248Z,18.66
2022-08-17T18:17:14.452Z,18.60
2022-08-17T18:19:41.541Z,18.56
2022-08-17T18:22:16.753Z,18.48
2022-08-17T18:24:47.454Z,18.42
2022-08-17T18:27:26.067Z,18.34
2022-08-17T18:29:56.756Z,18.27
2022-08-17T18:32:49.892Z,18.26
2022-08-17T18:35:19.875Z,18.23
2022-08-17T18:37:56.022Z,18.19
2022-08-17T18:40:32.798Z,18.09
2022-08-17T18:43:05.186Z,18.04
2022-08-17T18:45:48.101Z,17.97
2022-08-17T18:48:33.045Z,17.92
2022-08-17T18:51:40.752Z,17.84
2022-08-17T18:54:21.205Z,17.80
2022-08-17T18:56:56.492Z,17.80
2022-08-17T18:59:43.926Z,17.81
2022-08-17T19:02:23.123Z,17.81
2022-08-17T19:05:23.627Z,17.77
2022-08-17T19:07:50.633Z,17.77
2022-08-17T19:10:18.986Z,17.73
2022-08-17T19:12:53.159Z,17.62
2022-08-17T19:15:31.201Z,17.56
2022-08-17T19:18:00.441Z,17.47
2022-08-17T19:20:35.455Z,17.44
2022-08-17T19:23:23.749Z,17.40
2022-08-17T19:25:54.272Z,17.42
2022-08-17T19:28:33.295Z,17.39
2022-08-17T19:31:09.134Z,17.34
2022-08-17T19:33:37.580Z,17.27
2022-08-17T19:36:26.535Z,17.24
2022-08-17T19:38:59.455Z,17.16
2022-08-17T19:41:42.928Z,17.12
2022-08-17T19:44:17.784Z,17.11
2022-08-17T19:47:01.001Z,17.10
2022-08-17T19:49:46.723Z,17.09
2022-08-17T19:52:34.467Z,17.09
2022-08-17T19:55:09.015Z,17.09
2022-08-17T19:57:54.154Z,17.02
2022-08-17T20:00:21.215Z,17.02
2022-08-17T20:03:32.885Z,16.99
2022-08-17T20:06:12.635Z,16.94
2022-08-17T20:09:00.981Z,16.94
2022-08-17T20:11:46.731Z,16.93
2022-08-17T20:14:20.675Z,16.89
2022-08-17T20:16:48.538Z,16.87
2022-08-17T20:19:31.111Z,16.85
2022-08-17T20:22:09.744Z,16.83
2022-08-17T20:25:03.963Z,16.87
2022-08-17T20:27:36.220Z,16.89
2022-08-17T20:30:33.195Z,16.92
2022-08-17T20:33:02.337Z,16.94
2022-08-17T20:35:29.987Z,16.93
2022-08-17T20:37:56.650Z,16.93
2022-08-17T20:40:28.068Z,16.93
2022-08-17T20:42:56.077Z,16.93
2022-08-17T20:45:25.157Z,16.90
2022-08-17T20:48:36.377Z,16.88
2022-08-17T20:51:09.683Z,16.88
2022-08-17T20:53:49.169Z,16.87
2022-08-17T20:56:43.929Z,16.91
2022-08-17T20:59:25.918Z,16.90
2022-08-17T21:02:18.555Z,16.91
2022-08-17T21:04:52.931Z,16.91
2022-08-17T21:07:33.022Z,16.87
2022-08-17T21:10:19.588Z,16.85
2022-08-17T21:12:53.901Z,16.82
2022-08-17T21:16:02.901Z,16.81
2022-08-17T21:18:55.134Z,16.80
2022-08-17T21:21:34.507Z,16.79
2022-08-17T21:24:13.281Z,16.78
2022-08-17T21:27:09.991Z,16.81
2022-08-17T21:30:11.939Z,16.80
2022-08-17T21:32:41.943Z,16.77
2022-08-17T21:35:15.775Z,16.74
2022-08-17T21:37:45.502Z,16.69
2022-08-17T21:40:18.219Z,16.67
2022-08-17T21:42:55.728Z,16.68
2022-08-17T21:45:25.593Z,16.61
2022-08-17T21:48:13.985Z,16.57
2022-08-17T21:50:43.772Z,16.57
2022-08-17T21:53:22.239Z,16.56
2022-08-17T21:55:50.380Z,16.52
2022-08-17T21:58:40.350Z,16.44
2022-08-17T22:01:12.984Z,16.42
2022-08-17T22:03:41.211Z,16.36
2022-08-17T22:06:28.648Z,16.30
2022-08-17T22:09:11.374Z,16.23
2022-08-17T22:11:52.804Z,16.21
2022-08-17T22:14:52.466Z,16.23
2022-08-17T22:17:23.573Z,16.20
2022-08-17T22:19:59.808Z,16.16
2022-08-17T22:23:18.351Z,16.18
2022-08-17T22:26:09.484Z,16.20
2022-08-17T22:28:46.566Z,16.22
2022-08-17T22:31:16.977Z,16.21
2022-08-17T22:33:51.064Z,16.28
2022-08-17T22:36:22.875Z,16.31
2022-08-17T22:38:51.473Z,16.37
2022-08-17T22:41:27.135Z,16.42
2022-08-17T22:43:56.357Z,16.49
2022-08-17T22:46:24.455Z,16.53
2022-08-17T22:48:56.032Z,16.56
2022-08-17T22:51:25.732Z,16.57
2022-08-17T22:54:15.131Z,16.59
2022-08-17T22:57:18.697Z,16.60
2022-08-17T22:59:52.747Z,16.60
2022-08-17T23:02:28.771Z,16.62
2022-08-17T23:05:13.016Z,16.62
2022-08-17T23:07:46.769Z,16.62
2022-08-17T23:10:14.771Z,16.60
2022-08-17T23:12:41.520Z,16.61
2022-08-17T23:15:15.588Z,16.65
2022-08-17T23:17:43.247Z,16.66
2022-08-17T23:20:15.328Z,16.63
2022-08-17T23:22:51.844Z,16.64
2022-08-17T23:25:30.494Z,16.64
2022-08-17T23:28:01.772Z,16.64
2022-08-17T23:30:31.265Z,16.65
2022-08-17T23:33:01.304Z,16.67
2022-08-17T23:35:38.904Z,16.64
2022-08-17T23:38:07.693Z,16.65
2022-08-17T23:40:34.593Z,16.62
2022-08-17T23:43:05.895Z,16.61
2022-08-17T23:45:39.980Z,16.58
2022-08-17T23:48:08.016Z,16.56
2022-08-17T23:50:38.023Z,16.57
2022-08-17T23:53:06.118Z,16.59
2022-08-17T23:55:34.764Z,16.60
2022-08-17T23:58:04.075Z,16.63
